createdAt,value
2019-05-16T00:00:53.515Z,0.00
2019-05-16T00:01:53.444Z,0.00
2019-05-16T00:02:53.371Z,0.00
2019-05-16T00:03:53.305Z,0.00
2019-05-16T00:04:53.242Z,0.00
2019-05-16T00:05:54.493Z,0.00
2019-05-16T00:06:53.105Z,0.00
2019-05-16T00:07:53.030Z,0.00
2019-05-16T00:08:52.958Z,0.00
2019-05-16T00:09:52.889Z,0.00
2019-05-16T00:10:52.821Z,0.00
2019-05-16T00:11:52.754Z,0.00
2019-05-16T00:12:52.681Z,0.00
2019-05-16T00:13:52.608Z,0.00
2019-05-16T00:14:52.542Z,0.00
2019-05-16T00:15:52.472Z,0.00
2019-05-16T00:16:52.407Z,0.00
2019-05-16T00:17:52.337Z,0.00
2019-05-16T00:18:52.279Z,0.00
2019-05-16T00:19:52.197Z,0.00
2019-05-16T00:20:52.126Z,0.00
2019-05-16T00:21:52.057Z,0.00
2019-05-16T00:22:51.986Z,0.00
2019-05-16T00:23:51.923Z,0.00
2019-05-16T00:24:51.850Z,0.00
2019-05-16T00:25:51.783Z,0.00
2019-05-16T00:26:51.717Z,0.00
2019-05-16T00:27:51.645Z,0.00
2019-05-16T00:28:51.578Z,0.00
2019-05-16T00:29:51.507Z,0.00
2019-05-16T00:30:51.438Z,0.00
2019-05-16T00:31:51.371Z,0.00
2019-05-16T00:32:51.319Z,0.00
2019-05-16T00:33:51.235Z,0.00
2019-05-16T00:34:51.163Z,0.00
2019-05-16T00:36:02.131Z,0.00
2019-05-16T00:36:51.023Z,0.00
2019-05-16T00:37:50.961Z,0.00
2019-05-16T00:38:50.890Z,0.00
2019-05-16T00:39:50.821Z,0.00
2019-05-16T00:40:50.747Z,0.00
2019-05-16T00:41:50.680Z,0.00
2019-05-16T00:42:50.624Z,0.00
2019-05-16T00:43:50.543Z,0.00
2019-05-16T00:44:50.475Z,0.00
2019-05-16T00:45:50.419Z,0.00
2019-05-16T00:46:50.338Z,0.00
2019-05-16T00:47:50.271Z,0.00
2019-05-16T00:48:50.200Z,0.00
2019-05-16T00:49:50.129Z,0.00
2019-05-16T00:50:50.059Z,0.00
2019-05-16T00:51:49.999Z,0.00
2019-05-16T00:52:49.923Z,0.00
2019-05-16T00:53:49.861Z,0.00
2019-05-16T00:54:49.786Z,0.00
2019-05-16T00:55:49.723Z,0.00
2019-05-16T00:56:49.650Z,0.00
2019-05-16T00:57:49.581Z,0.00
2019-05-16T00:58:49.513Z,0.00
2019-05-16T00:59:49.443Z,0.00
2019-05-16T01:00:50.276Z,0.00
2019-05-16T01:01:50.315Z,0.00
2019-05-16T01:02:49.235Z,0.00
2019-05-16T01:03:49.165Z,0.00
2019-05-16T01:04:49.097Z,0.00
2019-05-16T01:05:49.029Z,0.00
2019-05-16T01:06:48.979Z,0.00
2019-05-16T01:07:48.898Z,0.00
2019-05-16T01:08:49.045Z,0.00
2019-05-16T01:09:48.916Z,0.00
2019-05-16T01:10:51.442Z,0.00
2019-05-16T01:11:48.795Z,0.00
2019-05-16T01:12:48.548Z,0.00
2019-05-16T01:13:48.837Z,0.00
2019-05-16T01:14:48.417Z,0.00
2019-05-16T01:15:48.798Z,0.00
2019-05-16T01:16:48.839Z,0.00
2019-05-16T01:17:48.526Z,0.00
2019-05-16T01:18:48.816Z,0.00
2019-05-16T01:19:48.460Z,0.00
2019-05-16T01:20:48.326Z,0.00
2019-05-16T01:21:48.443Z,0.00
2019-05-16T01:22:48.970Z,0.00
2019-05-16T01:23:48.306Z,0.00
2019-05-16T01:24:49.257Z,0.00
2019-05-16T01:25:48.432Z,0.00
2019-05-16T01:26:48.455Z,0.00
2019-05-16T01:27:47.754Z,0.00
2019-05-16T01:28:48.390Z,0.00
2019-05-16T01:29:47.808Z,0.00
2019-05-16T01:30:48.775Z,0.00
2019-05-16T01:31:48.398Z,0.00
2019-05-16T01:32:49.273Z,0.00
2019-05-16T01:33:47.837Z,0.00
2019-05-16T01:34:48.336Z,0.00
2019-05-16T01:35:47.746Z,0.00
2019-05-16T01:36:48.638Z,0.00
2019-05-16T01:37:48.805Z,0.00
2019-05-16T01:38:48.070Z,0.00
2019-05-16T01:39:48.412Z,0.00
2019-05-16T01:40:48.864Z,0.00
2019-05-16T01:41:48.097Z,0.00
2019-05-16T01:42:48.789Z,0.00
2019-05-16T01:43:48.303Z,0.00
2019-05-16T01:44:48.568Z,0.00
2019-05-16T01:45:48.458Z,0.00
2019-05-16T01:46:48.059Z,0.00
2019-05-16T01:47:48.155Z,0.00
2019-05-16T01:48:48.278Z,0.00
2019-05-16T01:49:46.007Z,0.00
2019-05-16T01:50:47.966Z,0.00
2019-05-16T01:51:45.870Z,0.00
2019-05-16T01:52:45.801Z,0.00
2019-05-16T01:53:45.736Z,0.00
2019-05-16T01:54:47.984Z,0.00
2019-05-16T01:55:45.596Z,0.00
2019-05-16T01:56:45.524Z,0.00
2019-05-16T01:57:45.460Z,0.00
2019-05-16T01:58:45.390Z,0.00
2019-05-16T01:59:45.322Z,0.00
2019-05-16T02:00:52.505Z,0.00
2019-05-16T02:01:45.181Z,0.00
2019-05-16T02:02:45.115Z,0.00
2019-05-16T02:03:45.047Z,0.00
2019-05-16T02:04:44.979Z,0.00
2019-05-16T02:05:44.920Z,0.00
2019-05-16T02:06:51.693Z,0.00
2019-05-16T02:07:44.777Z,0.00
2019-05-16T02:08:44.700Z,0.00
2019-05-16T02:09:44.632Z,0.00
2019-05-16T02:10:44.566Z,0.00
2019-05-16T02:11:44.498Z,0.00
2019-05-16T02:12:44.424Z,0.00
2019-05-16T02:13:44.359Z,0.00
2019-05-16T02:14:44.290Z,0.00
2019-05-16T02:15:44.218Z,0.00
2019-05-16T02:16:44.160Z,0.00
2019-05-16T02:17:44.081Z,0.00
2019-05-16T02:18:44.016Z,0.00
2019-05-16T02:19:43.943Z,0.00
2019-05-16T02:20:43.875Z,0.00
2019-05-16T02:21:43.806Z,0.00
2019-05-16T02:22:43.738Z,0.00
2019-05-16T02:23:43.668Z,0.00
2019-05-16T02:24:43.602Z,0.00
2019-05-16T02:25:43.529Z,0.00
2019-05-16T02:26:43.466Z,0.00
2019-05-16T02:27:43.393Z,0.00
2019-05-16T02:28:43.922Z,0.00
2019-05-16T02:29:43.252Z,0.00
2019-05-16T02:30:43.187Z,0.00
2019-05-16T02:31:43.120Z,0.00
2019-05-16T02:32:43.046Z,0.00
2019-05-16T02:33:42.979Z,0.00
2019-05-16T02:34:42.912Z,0.00
2019-05-16T02:35:42.847Z,0.00
2019-05-16T02:36:42.778Z,0.00
2019-05-16T02:37:42.794Z,0.00
2019-05-16T02:38:42.636Z,0.00
2019-05-16T02:39:42.566Z,0.00
2019-05-16T02:40:42.519Z,0.00
2019-05-16T02:41:46.086Z,0.00
2019-05-16T02:42:42.605Z,0.00
2019-05-16T02:43:42.360Z,0.00
2019-05-16T02:44:42.223Z,0.00
2019-05-16T02:45:42.162Z,0.00
2019-05-16T02:46:42.218Z,0.00
2019-05-16T02:47:42.960Z,0.00
2019-05-16T02:48:41.958Z,0.00
2019-05-16T02:49:42.245Z,0.00
2019-05-16T02:50:41.814Z,0.00
2019-05-16T02:51:41.744Z,0.00
2019-05-16T02:52:41.858Z,0.00
2019-05-16T02:53:41.886Z,0.00
2019-05-16T02:54:41.568Z,0.00
2019-05-16T02:55:42.378Z,0.00
2019-05-16T02:56:42.003Z,0.00
2019-05-16T02:57:41.910Z,0.00
2019-05-16T02:58:44.487Z,0.00
2019-05-16T02:59:41.760Z,0.00
2019-05-16T03:00:42.555Z,0.00
2019-05-16T03:01:41.162Z,0.00
2019-05-16T03:02:41.936Z,0.00
2019-05-16T03:03:43.945Z,0.00
2019-05-16T03:04:44.049Z,0.00
2019-05-16T03:05:41.863Z,0.00
2019-05-16T03:06:41.275Z,0.00
2019-05-16T03:07:46.333Z,0.00
2019-05-16T03:08:41.333Z,0.00
2019-05-16T03:09:41.174Z,0.00
2019-05-16T03:10:41.295Z,0.00
2019-05-16T03:11:42.025Z,0.00
2019-05-16T03:12:41.096Z,0.00
2019-05-16T03:13:42.323Z,0.00
2019-05-16T03:14:41.876Z,0.00
2019-05-16T03:15:40.769Z,0.00
2019-05-16T03:16:41.813Z,0.00
2019-05-16T03:17:40.415Z,0.00
2019-05-16T03:18:41.416Z,0.00
2019-05-16T03:19:41.765Z,0.00
2019-05-16T03:20:40.824Z,0.00
2019-05-16T03:21:41.285Z,0.00
2019-05-16T03:22:40.925Z,0.00
2019-05-16T03:23:42.112Z,0.00
2019-05-16T03:24:42.102Z,0.00
2019-05-16T03:25:41.777Z,0.00
2019-05-16T03:26:40.890Z,0.00
2019-05-16T03:27:41.357Z,0.00
2019-05-16T03:28:41.342Z,0.00
2019-05-16T03:29:41.776Z,0.00
2019-05-16T03:30:44.632Z,0.00
2019-05-16T03:31:44.899Z,0.00
2019-05-16T03:32:44.405Z,0.00
2019-05-16T03:33:48.384Z,0.00
2019-05-16T03:34:43.366Z,0.00
2019-05-16T03:35:44.007Z,0.00
2019-05-16T03:36:43.458Z,0.00
2019-05-16T03:37:54.385Z,0.00
2019-05-16T03:38:41.098Z,0.00
2019-05-16T03:41:12.471Z,0.00
2019-05-16T03:42:12.844Z,0.00
2019-05-16T03:44:07.643Z,0.00
2019-05-16T03:45:10.531Z,0.00
2019-05-16T03:47:02.890Z,0.00
2019-05-16T03:48:03.508Z,0.00
2019-05-16T03:50:00.961Z,0.00
2019-05-16T03:51:01.012Z,0.00
2019-05-16T03:52:01.487Z,0.00
2019-05-16T03:53:01.568Z,0.00
2019-05-16T03:54:02.797Z,0.00
2019-05-16T03:55:01.661Z,0.00
2019-05-16T03:56:01.881Z,0.00
2019-05-16T03:57:00.579Z,0.00
2019-05-16T03:58:01.183Z,0.00
2019-05-16T03:59:01.215Z,0.00
2019-05-16T04:00:00.814Z,0.00
2019-05-16T04:01:02.475Z,0.00
2019-05-16T04:02:01.541Z,0.00
2019-05-16T04:03:01.272Z,0.00
2019-05-16T04:04:01.621Z,0.00
2019-05-16T04:05:01.745Z,0.00
2019-05-16T04:06:01.181Z,0.00
2019-05-16T04:07:01.502Z,0.00
2019-05-16T04:08:13.973Z,0.00
2019-05-16T04:09:01.640Z,0.00
2019-05-16T04:10:02.268Z,0.00
2019-05-16T04:11:01.331Z,0.00
2019-05-16T04:12:01.904Z,0.00
2019-05-16T04:13:01.105Z,0.00
2019-05-16T04:14:01.478Z,4.00
2019-05-16T04:15:01.799Z,4.00
2019-05-16T04:16:01.272Z,4.00
2019-05-16T04:17:01.313Z,4.00
2019-05-16T04:18:01.316Z,0.00
2019-05-16T04:19:01.660Z,0.00
2019-05-16T04:20:01.799Z,4.00
2019-05-16T04:21:01.020Z,4.00
2019-05-16T04:22:01.355Z,4.00
2019-05-16T04:23:01.183Z,4.00
2019-05-16T04:24:01.287Z,4.00
2019-05-16T04:25:01.471Z,4.00
2019-05-16T04:26:00.694Z,8.00
2019-05-16T04:27:00.971Z,8.00
2019-05-16T04:28:00.873Z,8.00
2019-05-16T04:29:00.573Z,8.00
2019-05-16T04:30:01.423Z,12.00
2019-05-16T04:31:01.429Z,12.00
2019-05-16T04:32:01.165Z,16.00
2019-05-16T04:32:57.810Z,20.00
2019-05-16T04:34:00.835Z,20.00
2019-05-16T04:34:57.656Z,24.00
2019-05-16T04:35:57.592Z,24.00
2019-05-16T04:37:00.898Z,28.00
2019-05-16T04:37:57.456Z,36.00
2019-05-16T04:38:57.386Z,40.00
2019-05-16T04:39:57.318Z,40.00
2019-05-16T04:40:57.242Z,44.00
2019-05-16T04:41:57.169Z,52.00
2019-05-16T04:42:57.099Z,56.00
2019-05-16T04:44:00.446Z,64.00
2019-05-16T04:44:56.961Z,68.00
2019-05-16T04:45:56.897Z,76.00
2019-05-16T04:46:56.825Z,88.00
2019-05-16T04:47:56.757Z,92.00
2019-05-16T04:48:56.687Z,100.00
2019-05-16T04:49:56.629Z,108.00
2019-05-16T04:50:56.545Z,116.00
2019-05-16T04:51:56.483Z,128.00
2019-05-16T04:52:56.406Z,136.00
2019-05-16T04:53:56.340Z,148.00
2019-05-16T04:54:56.290Z,164.00
2019-05-16T04:55:56.200Z,172.00
2019-05-16T04:56:56.135Z,188.00
2019-05-16T04:57:56.065Z,204.00
2019-05-16T04:58:56.022Z,224.00
2019-05-16T04:59:55.925Z,240.00
2019-05-16T05:00:55.852Z,260.00
2019-05-16T05:01:55.786Z,276.00
2019-05-16T05:02:55.713Z,296.00
2019-05-16T05:04:08.736Z,312.00
2019-05-16T05:04:55.583Z,332.00
2019-05-16T05:05:55.507Z,356.00
2019-05-16T05:06:56.020Z,380.00
2019-05-16T05:07:55.362Z,400.00
2019-05-16T05:08:58.925Z,428.00
2019-05-16T05:09:55.229Z,456.00
2019-05-16T05:10:55.179Z,484.00
2019-05-16T05:11:55.128Z,512.00
2019-05-16T05:12:55.022Z,548.00
2019-05-16T05:13:54.949Z,576.00
2019-05-16T05:14:54.879Z,612.00
2019-05-16T05:15:54.809Z,648.00
2019-05-16T05:16:54.741Z,696.00
2019-05-16T05:17:54.673Z,740.00
2019-05-16T05:18:54.601Z,788.00
2019-05-16T05:19:54.528Z,840.00
2019-05-16T05:20:54.458Z,892.00
2019-05-16T05:21:54.391Z,940.00
2019-05-16T05:22:54.324Z,992.00
2019-05-16T05:23:54.255Z,1040.00
2019-05-16T05:24:54.217Z,1084.00
2019-05-16T05:25:54.113Z,1128.00
2019-05-16T05:26:54.042Z,1172.00
2019-05-16T05:27:53.977Z,1220.00
2019-05-16T05:28:53.919Z,1256.00
2019-05-16T05:29:53.836Z,1312.00
2019-05-16T05:30:53.762Z,1364.00
2019-05-16T05:31:55.561Z,1416.00
2019-05-16T05:32:53.624Z,1456.00
2019-05-16T05:33:53.558Z,1496.00
2019-05-16T05:34:53.488Z,1544.00
2019-05-16T05:35:53.420Z,1592.00
2019-05-16T05:36:53.350Z,1644.00
2019-05-16T05:37:53.341Z,1696.00
2019-05-16T05:39:07.880Z,1748.00
2019-05-16T05:39:53.144Z,1792.00
2019-05-16T05:40:53.080Z,1824.00
2019-05-16T05:41:53.005Z,1864.00
2019-05-16T05:42:52.933Z,1876.00
2019-05-16T05:43:54.518Z,1844.00
2019-05-16T05:44:52.798Z,1864.00
2019-05-16T05:45:52.731Z,1968.00
2019-05-16T05:46:52.661Z,1444.00
2019-05-16T05:47:52.587Z,1456.00
2019-05-16T05:48:52.520Z,1748.00
2019-05-16T05:49:52.453Z,2220.00
2019-05-16T05:50:52.378Z,2284.00
2019-05-16T05:51:52.316Z,2360.00
2019-05-16T05:52:52.249Z,2272.00
2019-05-16T05:53:52.197Z,2420.00
2019-05-16T05:54:52.104Z,2408.00
2019-05-16T05:55:52.045Z,2052.00
2019-05-16T05:56:51.969Z,1552.00
2019-05-16T05:57:51.902Z,2196.00
2019-05-16T05:58:51.824Z,2508.00
2019-05-16T05:59:51.761Z,2228.00
2019-05-16T06:00:52.560Z,1344.00
2019-05-16T06:01:52.023Z,1784.00
2019-05-16T06:02:51.554Z,2272.00
2019-05-16T06:03:51.483Z,2284.00
2019-05-16T06:04:51.414Z,1688.00
2019-05-16T06:05:51.350Z,1300.00
2019-05-16T06:06:51.279Z,1392.00
2019-05-16T06:07:51.210Z,1292.00
2019-05-16T06:08:51.154Z,1372.00
2019-05-16T06:09:56.236Z,1112.00
2019-05-16T06:10:51.004Z,1088.00
2019-05-16T06:11:50.934Z,1064.00
2019-05-16T06:12:50.886Z,1120.00
2019-05-16T06:13:50.795Z,1008.00
2019-05-16T06:14:50.729Z,1324.00
2019-05-16T06:15:51.332Z,2820.00
2019-05-16T06:16:51.117Z,3328.00
2019-05-16T06:17:51.008Z,3444.00
2019-05-16T06:18:50.516Z,3456.00
2019-05-16T06:19:50.382Z,3460.00
2019-05-16T06:20:51.173Z,3480.00
2019-05-16T06:21:50.456Z,3504.00
2019-05-16T06:22:50.978Z,3536.00
2019-05-16T06:23:50.830Z,3568.00
2019-05-16T06:24:50.573Z,3616.00
2019-05-16T06:25:50.743Z,3652.00
2019-05-16T06:26:50.418Z,3712.00
2019-05-16T06:27:51.162Z,3748.00
2019-05-16T06:28:50.501Z,3796.00
2019-05-16T06:29:49.801Z,3840.00
2019-05-16T06:30:51.495Z,3880.00
2019-05-16T06:31:49.770Z,3928.00
2019-05-16T06:32:50.129Z,3988.00
2019-05-16T06:33:50.178Z,4224.00
2019-05-16T06:34:50.695Z,5044.00
2019-05-16T06:35:51.199Z,5708.00
2019-05-16T06:36:50.975Z,5624.00
2019-05-16T06:37:49.947Z,5588.00
2019-05-16T06:38:49.797Z,5152.00
2019-05-16T06:39:50.278Z,4288.00
2019-05-16T06:40:51.847Z,4236.00
2019-05-16T06:41:50.991Z,4260.00
2019-05-16T06:42:50.958Z,4276.00
2019-05-16T06:43:50.672Z,4316.00
2019-05-16T06:44:50.401Z,4340.00
2019-05-16T06:45:50.973Z,4364.00
2019-05-16T06:47:06.198Z,4388.00
2019-05-16T06:47:50.348Z,4416.00
2019-05-16T06:48:50.449Z,4460.00
2019-05-16T06:49:48.350Z,4512.00
2019-05-16T06:50:51.105Z,4448.00
2019-05-16T06:51:48.212Z,4536.00
2019-05-16T06:52:50.188Z,4580.00
2019-05-16T06:53:50.059Z,4556.00
2019-05-16T06:54:50.114Z,3072.00
2019-05-16T06:55:49.762Z,2056.00
2019-05-16T06:56:50.796Z,3860.00
2019-05-16T06:57:50.133Z,4228.00
2019-05-16T06:58:50.963Z,4664.00
2019-05-16T06:59:49.868Z,4568.00
2019-05-16T07:00:51.671Z,4640.00
2019-05-16T07:01:49.858Z,4628.00
2019-05-16T07:02:49.694Z,4628.00
2019-05-16T07:03:47.402Z,3440.00
2019-05-16T07:04:47.337Z,4684.00
2019-05-16T07:05:47.272Z,4624.00
2019-05-16T07:06:56.089Z,4612.00
2019-05-16T07:07:47.137Z,4600.00
2019-05-16T07:08:47.073Z,4612.00
2019-05-16T07:09:58.099Z,4620.00
2019-05-16T07:10:46.938Z,4636.00
2019-05-16T07:11:46.869Z,4644.00
2019-05-16T07:12:46.803Z,4632.00
2019-05-16T07:13:46.764Z,4644.00
2019-05-16T07:14:46.671Z,4664.00
2019-05-16T07:15:46.604Z,4664.00
2019-05-16T07:16:46.539Z,4672.00
2019-05-16T07:17:46.472Z,4692.00
2019-05-16T07:18:46.403Z,4712.00
2019-05-16T07:19:46.339Z,4720.00
2019-05-16T07:20:46.268Z,4728.00
2019-05-16T07:21:46.207Z,4716.00
2019-05-16T07:22:46.138Z,4692.00
2019-05-16T07:23:46.069Z,4728.00
2019-05-16T07:24:46.005Z,4748.00
2019-05-16T07:25:45.938Z,4788.00
2019-05-16T07:26:45.874Z,4828.00
2019-05-16T07:27:45.810Z,4836.00
2019-05-16T07:28:45.735Z,4848.00
2019-05-16T07:29:45.677Z,4884.00
2019-05-16T07:30:45.605Z,4912.00
2019-05-16T07:31:45.539Z,4948.00
2019-05-16T07:32:45.477Z,4964.00
2019-05-16T07:33:45.406Z,4992.00
2019-05-16T07:34:45.340Z,5004.00
2019-05-16T07:35:45.277Z,5040.00
2019-05-16T07:36:45.212Z,5064.00
2019-05-16T07:37:45.142Z,5100.00
2019-05-16T07:38:45.076Z,5144.00
2019-05-16T07:39:45.013Z,5204.00
2019-05-16T07:40:44.944Z,5264.00
2019-05-16T07:41:44.883Z,5344.00
2019-05-16T07:42:44.811Z,5428.00
2019-05-16T07:43:44.749Z,5488.00
2019-05-16T07:44:44.676Z,5508.00
2019-05-16T07:45:44.615Z,5548.00
2019-05-16T07:46:44.856Z,5552.00
2019-05-16T07:47:44.479Z,5568.00
2019-05-16T07:48:44.419Z,5584.00
2019-05-16T07:49:44.348Z,5636.00
2019-05-16T07:50:44.284Z,5660.00
2019-05-16T07:51:44.218Z,5672.00
2019-05-16T07:52:44.151Z,5676.00
2019-05-16T07:53:44.086Z,5680.00
2019-05-16T07:54:44.017Z,5668.00
2019-05-16T07:55:43.950Z,5652.00
2019-05-16T07:56:43.894Z,5624.00
2019-05-16T07:57:43.821Z,5620.00
2019-05-16T07:58:43.751Z,5596.00
2019-05-16T07:59:43.687Z,5632.00
2019-05-16T08:00:52.512Z,5676.00
2019-05-16T08:01:43.554Z,4836.00
2019-05-16T08:02:43.491Z,5600.00
2019-05-16T08:03:44.173Z,5888.00
2019-05-16T08:04:43.360Z,5220.00
2019-05-16T08:05:43.292Z,5408.00
2019-05-16T08:06:43.227Z,4964.00
2019-05-16T08:07:43.171Z,5788.00
2019-05-16T08:08:43.096Z,5672.00
2019-05-16T08:09:43.049Z,4664.00
2019-05-16T08:10:46.523Z,4152.00
2019-05-16T08:11:42.925Z,3956.00
2019-05-16T08:12:42.844Z,3932.00
2019-05-16T08:13:42.766Z,4048.00
2019-05-16T08:14:42.701Z,5524.00
2019-05-16T08:15:42.637Z,5916.00
2019-05-16T08:16:42.573Z,6028.00
2019-05-16T08:17:44.703Z,5544.00
2019-05-16T08:18:45.232Z,4944.00
2019-05-16T08:19:42.372Z,4952.00
2019-05-16T08:20:42.305Z,4204.00
2019-05-16T08:21:42.239Z,5540.00
2019-05-16T08:22:42.176Z,5384.00
2019-05-16T08:23:42.240Z,4168.00
2019-05-16T08:24:42.043Z,4140.00
2019-05-16T08:25:41.977Z,5528.00
2019-05-16T08:26:43.082Z,5540.00
2019-05-16T08:27:41.841Z,5552.00
2019-05-16T08:28:42.214Z,5548.00
2019-05-16T08:29:41.739Z,5528.00
2019-05-16T08:30:41.688Z,5464.00
2019-05-16T08:32:42.364Z,4680.00
2019-05-16T08:33:41.881Z,5080.00
2019-05-16T08:34:41.378Z,5124.00
2019-05-16T08:35:41.584Z,5064.00
2019-05-16T08:36:41.260Z,4608.00
2019-05-16T08:37:46.062Z,5100.00
2019-05-16T08:38:43.383Z,5236.00
2019-05-16T08:39:41.408Z,5464.00
2019-05-16T08:43:41.525Z,5140.00
2019-05-16T08:45:41.759Z,3592.00
2019-05-16T08:46:42.388Z,4868.00
2019-05-16T08:47:42.428Z,4708.00
2019-05-16T08:48:42.375Z,3304.00
2019-05-16T08:49:42.250Z,5324.00
2019-05-16T08:50:05.960Z,5488.00
2019-05-16T08:50:10.872Z,4692.00
2019-05-16T08:50:11.912Z,5480.00
2019-05-16T08:50:42.017Z,4552.00
2019-05-16T08:51:42.601Z,2784.00
2019-05-16T08:52:43.402Z,5864.00
2019-05-16T08:53:43.305Z,5156.00
2019-05-16T08:55:43.350Z,4652.00
2019-05-16T08:56:44.238Z,5596.00
2019-05-16T08:57:40.936Z,5412.00
2019-05-16T08:58:41.001Z,5256.00
2019-05-16T08:59:41.070Z,5640.00
2019-05-16T09:00:42.011Z,5708.00
2019-05-16T09:01:48.318Z,5044.00
2019-05-16T09:02:42.219Z,5920.00
2019-05-16T09:03:41.488Z,5252.00
2019-05-16T09:04:43.915Z,4732.00
2019-05-16T09:05:42.860Z,4556.00
2019-05-16T09:06:42.471Z,5124.00
2019-05-16T09:07:39.187Z,4884.00
2019-05-16T09:08:39.122Z,5000.00
2019-05-16T09:09:44.334Z,4912.00
2019-05-16T09:10:29.683Z,5464.00
2019-05-16T09:10:41.537Z,5428.00
2019-05-16T09:10:58.989Z,4432.00
2019-05-16T09:11:44.604Z,4692.00
2019-05-16T09:12:38.872Z,4732.00
2019-05-16T09:13:38.795Z,5040.00
2019-05-16T09:14:39.153Z,5096.00
2019-05-16T09:15:39.060Z,5136.00
2019-05-16T09:16:38.594Z,4752.00
2019-05-16T09:17:38.685Z,4452.00
2019-05-16T09:18:30.747Z,5400.00
2019-05-16T09:18:41.117Z,4864.00
2019-05-16T09:19:38.397Z,4836.00
2019-05-16T09:20:42.707Z,4808.00
2019-05-16T09:21:38.496Z,4640.00
2019-05-16T09:22:38.202Z,4608.00
2019-05-16T09:23:38.446Z,4632.00
2019-05-16T09:24:38.081Z,4628.00
2019-05-16T09:25:37.995Z,4676.00
2019-05-16T09:26:38.424Z,4924.00
2019-05-16T09:27:38.265Z,5476.00
2019-05-16T09:28:39.123Z,5280.00
2019-05-16T09:29:37.739Z,5300.00
2019-05-16T09:30:37.731Z,4832.00
2019-05-16T09:31:38.577Z,4768.00
2019-05-16T09:32:41.886Z,4448.00
2019-05-16T09:33:37.666Z,5252.00
2019-05-16T09:34:38.099Z,5456.00
2019-05-16T09:35:37.341Z,5904.00
2019-05-16T09:36:37.428Z,5276.00
2019-05-16T09:37:37.695Z,5272.00
2019-05-16T09:38:38.240Z,5272.00
2019-05-16T09:39:37.312Z,4992.00
2019-05-16T09:40:38.864Z,4876.00
2019-05-16T09:41:49.773Z,4800.00
2019-05-16T09:42:37.334Z,4192.00
2019-05-16T09:43:38.810Z,5200.00
2019-05-16T09:44:37.144Z,4868.00
2019-05-16T09:45:37.990Z,4456.00
2019-05-16T09:46:37.640Z,4628.00
2019-05-16T09:47:38.932Z,4224.00
2019-05-16T09:48:37.934Z,4520.00
2019-05-16T09:49:37.112Z,4208.00
2019-05-16T09:50:37.933Z,4268.00
2019-05-16T09:51:37.619Z,4180.00
2019-05-16T09:52:36.479Z,4284.00
2019-05-16T09:53:36.652Z,4740.00
2019-05-16T09:54:37.934Z,4824.00
2019-05-16T09:55:37.355Z,5420.00
2019-05-16T09:56:37.028Z,5032.00
2019-05-16T09:57:37.700Z,5444.00
2019-05-16T09:58:37.338Z,5876.00
2019-05-16T09:59:37.053Z,5660.00
2019-05-16T10:00:37.449Z,5352.00
2019-05-16T10:01:37.058Z,4840.00
2019-05-16T10:02:36.688Z,4572.00
2019-05-16T10:03:37.234Z,4244.00
2019-05-16T10:04:36.807Z,3316.00
2019-05-16T10:05:37.136Z,3280.00
2019-05-16T10:06:37.175Z,3212.00
2019-05-16T10:07:38.484Z,3968.00
2019-05-16T10:08:37.278Z,4400.00
2019-05-16T10:09:42.110Z,4580.00
2019-05-16T10:10:36.971Z,4856.00
2019-05-16T10:11:40.881Z,4808.00
2019-05-16T10:12:36.956Z,4868.00
2019-05-16T10:13:37.300Z,4552.00
2019-05-16T10:14:37.290Z,4612.00
2019-05-16T10:15:34.725Z,4716.00
2019-05-16T10:16:36.693Z,4752.00
2019-05-16T10:17:36.896Z,4792.00
2019-05-16T10:18:36.845Z,4728.00
2019-05-16T10:19:36.644Z,4724.00
2019-05-16T10:20:36.575Z,4728.00
2019-05-16T10:21:36.957Z,4700.00
2019-05-16T10:22:34.268Z,4760.00
2019-05-16T10:23:36.285Z,3812.00
2019-05-16T10:24:34.139Z,4896.00
2019-05-16T10:25:34.073Z,5044.00
2019-05-16T10:26:34.006Z,5084.00
2019-05-16T10:27:33.939Z,4816.00
2019-05-16T10:28:33.878Z,4196.00
2019-05-16T10:29:33.845Z,3864.00
2019-05-16T10:30:33.751Z,4084.00
2019-05-16T10:31:44.868Z,4736.00
2019-05-16T10:32:33.614Z,5744.00
2019-05-16T10:33:33.548Z,4660.00
2019-05-16T10:34:33.482Z,5736.00
2019-05-16T10:35:33.420Z,5828.00
2019-05-16T10:36:33.352Z,4584.00
2019-05-16T10:37:33.286Z,4592.00
2019-05-16T10:38:33.218Z,4744.00
2019-05-16T10:39:33.155Z,5148.00
2019-05-16T10:40:33.088Z,5432.00
2019-05-16T10:41:33.027Z,5516.00
2019-05-16T10:42:32.958Z,5564.00
2019-05-16T10:43:32.891Z,4624.00
2019-05-16T10:44:32.828Z,4596.00
2019-05-16T10:45:32.762Z,4744.00
2019-05-16T10:46:32.693Z,5260.00
2019-05-16T10:47:32.632Z,5464.00
2019-05-16T10:48:32.579Z,5248.00
2019-05-16T10:49:37.706Z,4936.00
2019-05-16T10:50:32.481Z,4612.00
2019-05-16T10:51:32.401Z,4288.00
2019-05-16T10:52:32.304Z,4272.00
2019-05-16T10:53:58.111Z,4196.00
2019-05-16T10:54:32.206Z,4076.00
2019-05-16T10:55:32.107Z,3960.00
2019-05-16T10:56:32.045Z,3848.00
2019-05-16T10:57:32.195Z,3764.00
2019-05-16T10:58:37.031Z,3676.00
2019-05-16T10:59:58.604Z,3604.00
2019-05-16T11:00:57.535Z,3544.00
2019-05-16T11:01:31.720Z,3492.00
2019-05-16T11:02:31.727Z,3452.00
2019-05-16T11:03:31.603Z,3412.00
2019-05-16T11:04:49.816Z,3372.00
2019-05-16T11:05:36.121Z,3120.00
2019-05-16T11:06:31.388Z,3044.00
2019-05-16T11:07:31.406Z,3296.00
2019-05-16T11:08:31.262Z,3256.00
2019-05-16T11:09:31.197Z,3156.00
2019-05-16T11:10:31.158Z,2976.00
2019-05-16T11:11:31.062Z,3188.00
2019-05-16T11:12:46.232Z,3164.00
2019-05-16T11:13:30.936Z,3124.00
2019-05-16T11:14:30.875Z,3112.00
2019-05-16T11:15:30.810Z,3076.00
2019-05-16T11:16:30.739Z,3056.00
2019-05-16T11:17:30.677Z,3032.00
2019-05-16T11:18:30.610Z,3020.00
2019-05-16T11:19:30.547Z,3004.00
2019-05-16T11:20:30.553Z,2992.00
2019-05-16T11:21:30.450Z,2976.00
2019-05-16T11:22:30.349Z,2972.00
2019-05-16T11:23:31.347Z,2960.00
2019-05-16T11:24:30.276Z,2952.00
2019-05-16T11:25:32.627Z,2940.00
2019-05-16T11:26:30.297Z,2928.00
2019-05-16T11:27:30.021Z,2916.00
2019-05-16T11:28:29.971Z,2908.00
2019-05-16T11:29:29.890Z,2892.00
2019-05-16T11:30:29.848Z,2888.00
2019-05-16T11:31:29.759Z,2884.00
2019-05-16T11:32:29.698Z,2868.00
2019-05-16T11:33:29.629Z,2856.00
2019-05-16T11:34:29.558Z,2840.00
2019-05-16T11:35:29.501Z,2840.00
2019-05-16T11:36:29.436Z,2828.00
2019-05-16T11:37:29.367Z,2812.00
2019-05-16T11:38:29.302Z,2800.00
2019-05-16T11:39:29.238Z,2784.00
2019-05-16T11:40:30.299Z,2772.00
2019-05-16T11:41:29.104Z,2756.00
2019-05-16T11:42:29.035Z,2756.00
2019-05-16T11:43:28.974Z,2744.00
2019-05-16T11:44:29.160Z,2728.00
2019-05-16T11:45:28.838Z,2716.00
2019-05-16T11:46:28.787Z,2708.00
2019-05-16T11:47:28.706Z,2704.00
2019-05-16T11:48:29.575Z,2692.00
2019-05-16T11:49:28.579Z,2680.00
2019-05-16T11:50:28.516Z,2672.00
2019-05-16T11:51:28.442Z,2660.00
2019-05-16T11:52:28.378Z,2656.00
2019-05-16T11:53:28.491Z,2640.00
2019-05-16T11:54:28.249Z,2636.00
2019-05-16T11:55:33.688Z,2624.00
2019-05-16T11:56:28.117Z,2612.00
2019-05-16T11:57:28.049Z,2596.00
2019-05-16T11:58:27.985Z,2592.00
2019-05-16T11:59:27.919Z,2584.00
2019-05-16T12:00:30.545Z,2572.00
2019-05-16T12:01:27.885Z,2568.00
2019-05-16T12:02:28.113Z,2556.00
2019-05-16T12:03:28.333Z,2544.00
2019-05-16T12:04:28.061Z,2536.00
2019-05-16T12:05:27.533Z,2528.00
2019-05-16T12:06:27.459Z,2524.00
2019-05-16T12:07:33.951Z,2516.00
2019-05-16T12:08:27.331Z,2512.00
2019-05-16T12:09:33.421Z,2508.00
2019-05-16T12:10:27.201Z,2508.00
2019-05-16T12:11:27.544Z,2488.00
2019-05-16T12:12:27.254Z,2452.00
2019-05-16T12:13:31.927Z,2432.00
2019-05-16T12:14:27.269Z,2416.00
2019-05-16T12:15:27.385Z,2408.00
2019-05-16T12:16:27.501Z,2396.00
2019-05-16T12:17:27.976Z,2384.00
2019-05-16T12:18:26.777Z,2372.00
2019-05-16T12:19:34.297Z,2356.00
2019-05-16T12:20:27.368Z,2344.00
2019-05-16T12:21:27.462Z,2332.00
2019-05-16T12:22:26.861Z,2316.00
2019-05-16T12:23:27.670Z,2308.00
2019-05-16T12:24:33.159Z,2300.00
2019-05-16T12:25:27.313Z,2296.00
2019-05-16T12:26:28.184Z,2272.00
2019-05-16T12:27:32.732Z,2284.00
2019-05-16T12:28:27.244Z,2252.00
2019-05-16T12:29:28.097Z,2248.00
2019-05-16T12:30:25.879Z,2252.00
2019-05-16T12:31:25.822Z,2284.00
2019-05-16T12:32:27.677Z,2256.00
2019-05-16T12:33:27.505Z,2272.00
2019-05-16T12:34:25.613Z,2276.00
2019-05-16T12:35:27.687Z,2276.00
2019-05-16T12:36:26.798Z,2276.00